sensor_id;sensor_type;location;lat;lon;timestamp;temperature;humidity
69626;DHT22;56847;51.984;5.088;2024-02-16T00:00:39;14.40;74.90
69626;DHT22;56847;51.984;5.088;2024-02-16T00:03:11;14.30;74.90
69626;DHT22;56847;51.984;5.088;2024-02-16T00:05:38;14.30;75.00
69626;DHT22;56847;51.984;5.088;2024-02-16T00:08:05;14.30;75.10
69626;DHT22;56847;51.984;5.088;2024-02-16T00:10:32;14.30;75.00
69626;DHT22;56847;51.984;5.088;2024-02-16T00:12:59;14.30;75.10
69626;DHT22;56847;51.984;5.088;2024-02-16T00:15:26;14.30;75.10
69626;DHT22;56847;51.984;5.088;2024-02-16T00:17:53;14.30;75.10
69626;DHT22;56847;51.984;5.088;2024-02-16T00:20:20;14.20;75.20
69626;DHT22;56847;51.984;5.088;2024-02-16T00:22:49;14.20;75.20
69626;DHT22;56847;51.984;5.088;2024-02-16T00:25:16;14.20;75.20
69626;DHT22;56847;51.984;5.088;2024-02-16T00:27:44;14.20;75.20
69626;DHT22;56847;51.984;5.088;2024-02-16T00:30:12;14.20;75.20
69626;DHT22;56847;51.984;5.088;2024-02-16T00:32:39;14.20;75.20
69626;DHT22;56847;51.984;5.088;2024-02-16T00:35:06;14.20;75.20
69626;DHT22;56847;51.984;5.088;2024-02-16T00:37:33;14.20;75.20
69626;DHT22;56847;51.984;5.088;2024-02-16T00:40:01;14.10;75.20
69626;DHT22;56847;51.984;5.088;2024-02-16T00:42:27;14.10;75.20
69626;DHT22;56847;51.984;5.088;2024-02-16T00:44:58;14.10;75.20
69626;DHT22;56847;51.984;5.088;2024-02-16T00:47:27;14.10;75.20
69626;DHT22;56847;51.984;5.088;2024-02-16T00:49:54;14.10;75.20
69626;DHT22;56847;51.984;5.088;2024-02-16T00:52:21;14.00;75.30
69626;DHT22;56847;51.984;5.088;2024-02-16T00:54:49;14.00;75.30
69626;DHT22;56847;51.984;5.088;2024-02-16T00:57:16;14.00;75.40
69626;DHT22;56847;51.984;5.088;2024-02-16T00:59:43;14.00;75.50
69626;DHT22;56847;51.984;5.088;2024-02-16T01:02:10;14.00;75.60
69626;DHT22;56847;51.984;5.088;2024-02-16T01:04:38;14.00;75.60
69626;DHT22;56847;51.984;5.088;2024-02-16T01:07:05;14.00;75.60
69626;DHT22;56847;51.984;5.088;2024-02-16T01:09:32;14.00;75.50
69626;DHT22;56847;51.984;5.088;2024-02-16T01:11:59;14.00;75.50
69626;DHT22;56847;51.984;5.088;2024-02-16T01:14:26;14.00;75.50
69626;DHT22;56847;51.984;5.088;2024-02-16T01:16:54;14.00;75.40
69626;DHT22;56847;51.984;5.088;2024-02-16T01:19:21;14.00;75.40
69626;DHT22;56847;51.984;5.088;2024-02-16T01:21:48;13.90;75.50
69626;DHT22;56847;51.984;5.088;2024-02-16T01:24:19;13.90;75.50
69626;DHT22;56847;51.984;5.088;2024-02-16T01:26:48;13.90;75.50
69626;DHT22;56847;51.984;5.088;2024-02-16T01:29:15;13.90;75.60
69626;DHT22;56847;51.984;5.088;2024-02-16T01:31:42;13.90;75.70
69626;DHT22;56847;51.984;5.088;2024-02-16T01:34:09;13.90;75.70
69626;DHT22;56847;51.984;5.088;2024-02-16T01:36:36;13.90;75.60
69626;DHT22;56847;51.984;5.088;2024-02-16T01:39:03;13.90;75.60
69626;DHT22;56847;51.984;5.088;2024-02-16T01:41:31;13.90;75.70
69626;DHT22;56847;51.984;5.088;2024-02-16T01:43:58;13.90;75.70
69626;DHT22;56847;51.984;5.088;2024-02-16T01:46:25;13.80;75.70
69626;DHT22;56847;51.984;5.088;2024-02-16T01:48:53;13.90;75.60
69626;DHT22;56847;51.984;5.088;2024-02-16T01:51:23;13.90;75.60
69626;DHT22;56847;51.984;5.088;2024-02-16T01:53:52;13.90;75.70
69626;DHT22;56847;51.984;5.088;2024-02-16T01:56:21;13.90;75.90
69626;DHT22;56847;51.984;5.088;2024-02-16T01:58:48;13.90;75.90
69626;DHT22;56847;51.984;5.088;2024-02-16T02:01:18;13.90;75.80
69626;DHT22;56847;51.984;5.088;2024-02-16T02:03:45;14.00;75.80
69626;DHT22;56847;51.984;5.088;2024-02-16T02:06:12;14.00;75.80
69626;DHT22;56847;51.984;5.088;2024-02-16T02:08:39;14.00;75.70
69626;DHT22;56847;51.984;5.088;2024-02-16T02:11:06;14.00;75.60
69626;DHT22;56847;51.984;5.088;2024-02-16T02:13:33;14.00;75.70
69626;DHT22;56847;51.984;5.088;2024-02-16T02:16:00;14.00;75.60
69626;DHT22;56847;51.984;5.088;2024-02-16T02:18:30;14.00;75.60
69626;DHT22;56847;51.984;5.088;2024-02-16T02:20:57;14.00;75.40
69626;DHT22;56847;51.984;5.088;2024-02-16T02:23:24;14.00;75.30
69626;DHT22;56847;51.984;5.088;2024-02-16T02:25:51;13.90;75.40
69626;DHT22;56847;51.984;5.088;2024-02-16T02:28:18;13.90;75.30
69626;DHT22;56847;51.984;5.088;2024-02-16T02:30:45;13.90;75.40
69626;DHT22;56847;51.984;5.088;2024-02-16T02:33:12;13.90;75.40
69626;DHT22;56847;51.984;5.088;2024-02-16T02:35:41;13.90;75.40
69626;DHT22;56847;51.984;5.088;2024-02-16T02:38:08;13.90;75.50
69626;DHT22;56847;51.984;5.088;2024-02-16T02:40:35;13.90;75.40
69626;DHT22;56847;51.984;5.088;2024-02-16T02:43:02;13.90;75.50
69626;DHT22;56847;51.984;5.088;2024-02-16T02:45:29;13.90;75.50
69626;DHT22;56847;51.984;5.088;2024-02-16T02:47:56;13.90;75.50
69626;DHT22;56847;51.984;5.088;2024-02-16T02:50:23;13.90;75.30
69626;DHT22;56847;51.984;5.088;2024-02-16T02:52:50;13.80;75.20
69626;DHT22;56847;51.984;5.088;2024-02-16T02:55:18;13.80;75.10
69626;DHT22;56847;51.984;5.088;2024-02-16T02:57:47;13.80;75.10
69626;DHT22;56847;51.984;5.088;2024-02-16T03:00:15;13.70;75.20
69626;DHT22;56847;51.984;5.088;2024-02-16T03:02:42;13.70;75.20
69626;DHT22;56847;51.984;5.088;2024-02-16T03:05:11;13.60;75.20
69626;DHT22;56847;51.984;5.088;2024-02-16T03:07:38;13.60;75.30
69626;DHT22;56847;51.984;5.088;2024-02-16T03:10:06;13.60;75.40
69626;DHT22;56847;51.984;5.088;2024-02-16T03:12:36;13.50;75.40
69626;DHT22;56847;51.984;5.088;2024-02-16T03:15:04;13.50;75.40
69626;DHT22;56847;51.984;5.088;2024-02-16T03:17:31;13.50;75.40
69626;DHT22;56847;51.984;5.088;2024-02-16T03:19:58;13.50;75.40
69626;DHT22;56847;51.984;5.088;2024-02-16T03:22:25;13.50;75.40
69626;DHT22;56847;51.984;5.088;2024-02-16T03:24:52;13.50;75.50
69626;DHT22;56847;51.984;5.088;2024-02-16T03:27:19;13.50;75.50
69626;DHT22;56847;51.984;5.088;2024-02-16T03:29:47;13.50;75.40
69626;DHT22;56847;51.984;5.088;2024-02-16T03:32:14;13.40;75.50
69626;DHT22;56847;51.984;5.088;2024-02-16T03:34:41;13.40;75.50
69626;DHT22;56847;51.984;5.088;2024-02-16T03:37:08;13.40;75.50
69626;DHT22;56847;51.984;5.088;2024-02-16T03:39:36;13.40;75.50
69626;DHT22;56847;51.984;5.088;2024-02-16T03:42:03;13.40;75.50
69626;DHT22;56847;51.984;5.088;2024-02-16T03:44:31;13.40;75.60
69626;DHT22;56847;51.984;5.088;2024-02-16T03:46:58;13.40;75.80
69626;DHT22;56847;51.984;5.088;2024-02-16T03:49:25;13.40;75.80
69626;DHT22;56847;51.984;5.088;2024-02-16T03:51:55;13.40;75.90
69626;DHT22;56847;51.984;5.088;2024-02-16T03:54:22;13.40;75.90
69626;DHT22;56847;51.984;5.088;2024-02-16T03:56:55;13.40;75.80
69626;DHT22;56847;51.984;5.088;2024-02-16T03:59:22;13.50;75.90
69626;DHT22;56847;51.984;5.088;2024-02-16T04:01:51;13.50;75.80
69626;DHT22;56847;51.984;5.088;2024-02-16T04:04:18;13.50;75.70
69626;DHT22;56847;51.984;5.088;2024-02-16T04:06:45;13.50;75.60
69626;DHT22;56847;51.984;5.088;2024-02-16T04:09:13;13.50;75.60
69626;DHT22;56847;51.984;5.088;2024-02-16T04:11:40;13.50;75.50
69626;DHT22;56847;51.984;5.088;2024-02-16T04:14:07;13.50;75.50
69626;DHT22;56847;51.984;5.088;2024-02-16T04:16:35;13.40;75.60
69626;DHT22;56847;51.984;5.088;2024-02-16T04:19:02;13.40;75.50
69626;DHT22;56847;51.984;5.088;2024-02-16T04:21:29;13.40;75.60
69626;DHT22;56847;51.984;5.088;2024-02-16T04:23:56;13.40;75.60
69626;DHT22;56847;51.984;5.088;2024-02-16T04:26:23;13.40;75.60
69626;DHT22;56847;51.984;5.088;2024-02-16T04:28:50;13.40;75.70
69626;DHT22;56847;51.984;5.088;2024-02-16T04:31:17;13.40;75.60
69626;DHT22;56847;51.984;5.088;2024-02-16T04:33:44;13.40;75.70
69626;DHT22;56847;51.984;5.088;2024-02-16T04:36:12;13.40;75.70
69626;DHT22;56847;51.984;5.088;2024-02-16T04:38:39;13.40;75.80
69626;DHT22;56847;51.984;5.088;2024-02-16T04:41:06;13.40;75.70
69626;DHT22;56847;51.984;5.088;2024-02-16T04:43:33;13.40;75.60
69626;DHT22;56847;51.984;5.088;2024-02-16T04:46:01;13.40;75.60
69626;DHT22;56847;51.984;5.088;2024-02-16T04:48:28;13.30;75.60
69626;DHT22;56847;51.984;5.088;2024-02-16T04:50:56;13.30;75.50
69626;DHT22;56847;51.984;5.088;2024-02-16T04:53:23;13.30;75.60
69626;DHT22;56847;51.984;5.088;2024-02-16T04:55:50;13.20;75.60
69626;DHT22;56847;51.984;5.088;2024-02-16T04:58:20;13.20;75.70
69626;DHT22;56847;51.984;5.088;2024-02-16T05:00:47;13.20;75.70
69626;DHT22;56847;51.984;5.088;2024-02-16T05:03:14;13.20;75.80
69626;DHT22;56847;51.984;5.088;2024-02-16T05:05:42;13.20;75.80
69626;DHT22;56847;51.984;5.088;2024-02-16T05:08:09;13.20;75.90
69626;DHT22;56847;51.984;5.088;2024-02-16T05:10:36;13.20;76.00
69626;DHT22;56847;51.984;5.088;2024-02-16T05:13:04;13.20;76.10
69626;DHT22;56847;51.984;5.088;2024-02-16T05:15:31;13.20;76.20
69626;DHT22;56847;51.984;5.088;2024-02-16T05:18:00;13.20;76.20
69626;DHT22;56847;51.984;5.088;2024-02-16T05:20:27;13.20;76.30
69626;DHT22;56847;51.984;5.088;2024-02-16T05:22:54;13.30;76.20
69626;DHT22;56847;51.984;5.088;2024-02-16T05:25:22;13.30;76.20
69626;DHT22;56847;51.984;5.088;2024-02-16T05:27:49;13.30;76.10
69626;DHT22;56847;51.984;5.088;2024-02-16T05:30:16;13.40;76.20
69626;DHT22;56847;51.984;5.088;2024-02-16T05:32:43;13.40;76.20
69626;DHT22;56847;51.984;5.088;2024-02-16T05:35:12;13.40;76.10
69626;DHT22;56847;51.984;5.088;2024-02-16T05:37:40;13.40;76.00
69626;DHT22;56847;51.984;5.088;2024-02-16T05:40:11;13.40;76.00
69626;DHT22;56847;51.984;5.088;2024-02-16T05:43:10;13.40;75.90
69626;DHT22;56847;51.984;5.088;2024-02-16T05:45:37;13.30;76.00
69626;DHT22;56847;51.984;5.088;2024-02-16T05:48:04;13.30;76.00
69626;DHT22;56847;51.984;5.088;2024-02-16T05:50:31;13.30;76.10
69626;DHT22;56847;51.984;5.088;2024-02-16T05:52:59;13.30;76.20
69626;DHT22;56847;51.984;5.088;2024-02-16T05:55:26;13.30;76.30
69626;DHT22;56847;51.984;5.088;2024-02-16T05:57:53;13.30;76.40
69626;DHT22;56847;51.984;5.088;2024-02-16T06:00:20;13.40;76.50
69626;DHT22;56847;51.984;5.088;2024-02-16T06:02:48;13.40;76.70
69626;DHT22;56847;51.984;5.088;2024-02-16T06:05:16;13.50;76.70
69626;DHT22;56847;51.984;5.088;2024-02-16T06:07:43;13.50;76.80
69626;DHT22;56847;51.984;5.088;2024-02-16T06:10:10;13.60;76.80
69626;DHT22;56847;51.984;5.088;2024-02-16T06:12:39;13.60;76.70
69626;DHT22;56847;51.984;5.088;2024-02-16T06:15:07;13.60;76.70
69626;DHT22;56847;51.984;5.088;2024-02-16T06:17:35;13.70;76.70
69626;DHT22;56847;51.984;5.088;2024-02-16T06:20:04;13.70;76.70
69626;DHT22;56847;51.984;5.088;2024-02-16T06:22:32;13.70;76.70
69626;DHT22;56847;51.984;5.088;2024-02-16T06:24:59;13.80;76.70
69626;DHT22;56847;51.984;5.088;2024-02-16T06:27:26;13.80;76.70
69626;DHT22;56847;51.984;5.088;2024-02-16T06:29:53;13.80;76.60
69626;DHT22;56847;51.984;5.088;2024-02-16T06:32:20;13.80;76.50
69626;DHT22;56847;51.984;5.088;2024-02-16T06:34:47;13.80;76.50
69626;DHT22;56847;51.984;5.088;2024-02-16T06:37:14;13.90;76.30
69626;DHT22;56847;51.984;5.088;2024-02-16T06:39:41;13.90;76.30
69626;DHT22;56847;51.984;5.088;2024-02-16T06:42:10;13.90;76.30
69626;DHT22;56847;51.984;5.088;2024-02-16T06:44:39;13.90;76.30
69626;DHT22;56847;51.984;5.088;2024-02-16T06:47:06;13.90;76.20
69626;DHT22;56847;51.984;5.088;2024-02-16T06:49:33;13.80;76.20
69626;DHT22;56847;51.984;5.088;2024-02-16T06:52:00;13.80;76.20
69626;DHT22;56847;51.984;5.088;2024-02-16T06:54:27;13.80;76.20
69626;DHT22;56847;51.984;5.088;2024-02-16T06:56:55;13.80;76.20
69626;DHT22;56847;51.984;5.088;2024-02-16T06:59:25;13.80;76.40
69626;DHT22;56847;51.984;5.088;2024-02-16T07:01:52;13.80;76.50
69626;DHT22;56847;51.984;5.088;2024-02-16T07:04:19;13.80;76.50
69626;DHT22;56847;51.984;5.088;2024-02-16T07:06:46;13.90;76.60
69626;DHT22;56847;51.984;5.088;2024-02-16T07:09:13;13.90;76.60
69626;DHT22;56847;51.984;5.088;2024-02-16T07:11:42;13.90;76.60
69626;DHT22;56847;51.984;5.088;2024-02-16T07:14:17;14.00;76.60
69626;DHT22;56847;51.984;5.088;2024-02-16T07:16:44;14.00;76.60
69626;DHT22;56847;51.984;5.088;2024-02-16T07:19:11;14.10;76.60
69626;DHT22;56847;51.984;5.088;2024-02-16T07:21:40;14.10;76.50
69626;DHT22;56847;51.984;5.088;2024-02-16T07:24:07;14.10;76.60
69626;DHT22;56847;51.984;5.088;2024-02-16T07:26:36;14.20;76.50
69626;DHT22;56847;51.984;5.088;2024-02-16T07:29:03;14.20;76.50
69626;DHT22;56847;51.984;5.088;2024-02-16T07:31:34;14.20;76.40
69626;DHT22;56847;51.984;5.088;2024-02-16T07:34:02;14.20;76.30
69626;DHT22;56847;51.984;5.088;2024-02-16T07:36:29;14.20;76.30
69626;DHT22;56847;51.984;5.088;2024-02-16T07:38:56;14.20;76.40
69626;DHT22;56847;51.984;5.088;2024-02-16T07:41:23;14.20;76.40
69626;DHT22;56847;51.984;5.088;2024-02-16T07:43:50;14.20;76.50
69626;DHT22;56847;51.984;5.088;2024-02-16T07:46:17;14.30;76.50
69626;DHT22;56847;51.984;5.088;2024-02-16T07:48:45;14.30;76.50
69626;DHT22;56847;51.984;5.088;2024-02-16T07:51:13;14.30;76.50
69626;DHT22;56847;51.984;5.088;2024-02-16T07:53:40;14.30;76.60
69626;DHT22;56847;51.984;5.088;2024-02-16T07:56:08;14.40;76.50
69626;DHT22;56847;51.984;5.088;2024-02-16T07:58:36;14.40;76.50
69626;DHT22;56847;51.984;5.088;2024-02-16T08:01:03;14.40;76.50
69626;DHT22;56847;51.984;5.088;2024-02-16T08:03:30;14.50;76.50
69626;DHT22;56847;51.984;5.088;2024-02-16T08:05:57;14.50;76.60
69626;DHT22;56847;51.984;5.088;2024-02-16T08:08:25;14.60;76.50
69626;DHT22;56847;51.984;5.088;2024-02-16T08:10:52;14.60;76.50
69626;DHT22;56847;51.984;5.088;2024-02-16T08:13:19;14.70;76.60
69626;DHT22;56847;51.984;5.088;2024-02-16T08:15:47;14.70;76.50
69626;DHT22;56847;51.984;5.088;2024-02-16T08:18:15;14.80;76.60
69626;DHT22;56847;51.984;5.088;2024-02-16T08:20:43;14.80;76.50
69626;DHT22;56847;51.984;5.088;2024-02-16T08:23:10;14.90;76.40
69626;DHT22;56847;51.984;5.088;2024-02-16T08:25:37;15.00;76.30
69626;DHT22;56847;51.984;5.088;2024-02-16T08:28:04;15.00;76.40
69626;DHT22;56847;51.984;5.088;2024-02-16T08:30:31;15.10;76.20
69626;DHT22;56847;51.984;5.088;2024-02-16T08:33:00;15.20;76.10
69626;DHT22;56847;51.984;5.088;2024-02-16T08:35:27;15.30;76.10
69626;DHT22;56847;51.984;5.088;2024-02-16T08:37:54;15.30;75.90
69626;DHT22;56847;51.984;5.088;2024-02-16T08:40:21;15.40;75.70
69626;DHT22;56847;51.984;5.088;2024-02-16T08:42:48;15.40;75.50
69626;DHT22;56847;51.984;5.088;2024-02-16T08:45:15;15.50;75.30
69626;DHT22;56847;51.984;5.088;2024-02-16T08:47:44;15.50;75.00
69626;DHT22;56847;51.984;5.088;2024-02-16T08:50:13;15.50;75.00
69626;DHT22;56847;51.984;5.088;2024-02-16T08:52:40;15.50;75.00
69626;DHT22;56847;51.984;5.088;2024-02-16T08:55:08;15.50;74.90
69626;DHT22;56847;51.984;5.088;2024-02-16T08:57:35;15.50;74.60
69626;DHT22;56847;51.984;5.088;2024-02-16T09:00:05;15.40;74.50
69626;DHT22;56847;51.984;5.088;2024-02-16T09:02:34;15.30;74.60
69626;DHT22;56847;51.984;5.088;2024-02-16T09:05:00;15.20;74.70
69626;DHT22;56847;51.984;5.088;2024-02-16T09:07:28;15.10;75.20
69626;DHT22;56847;51.984;5.088;2024-02-16T09:09:55;15.00;76.10
69626;DHT22;56847;51.984;5.088;2024-02-16T09:12:23;14.90;76.90
69626;DHT22;56847;51.984;5.088;2024-02-16T09:14:50;14.70;77.70
69626;DHT22;56847;51.984;5.088;2024-02-16T09:17:17;14.60;78.60
69626;DHT22;56847;51.984;5.088;2024-02-16T09:19:46;14.60;79.30
69626;DHT22;56847;51.984;5.088;2024-02-16T09:22:13;14.60;79.70
69626;DHT22;56847;51.984;5.088;2024-02-16T09:24:40;14.60;80.20
69626;DHT22;56847;51.984;5.088;2024-02-16T09:27:08;14.60;80.50
69626;DHT22;56847;51.984;5.088;2024-02-16T09:29:37;14.60;80.70
69626;DHT22;56847;51.984;5.088;2024-02-16T09:32:04;14.70;80.80
69626;DHT22;56847;51.984;5.088;2024-02-16T09:34:32;14.70;81.00
69626;DHT22;56847;51.984;5.088;2024-02-16T09:36:59;14.80;81.10
69626;DHT22;56847;51.984;5.088;2024-02-16T09:39:26;14.90;81.30
69626;DHT22;56847;51.984;5.088;2024-02-16T09:41:55;14.90;81.40
69626;DHT22;56847;51.984;5.088;2024-02-16T09:44:22;15.00;81.60
69626;DHT22;56847;51.984;5.088;2024-02-16T09:46:50;15.10;81.60
69626;DHT22;56847;51.984;5.088;2024-02-16T09:49:18;15.10;81.50
69626;DHT22;56847;51.984;5.088;2024-02-16T09:52:02;15.10;81.30
69626;DHT22;56847;51.984;5.088;2024-02-16T09:54:33;15.10;81.30
69626;DHT22;56847;51.984;5.088;2024-02-16T09:57:03;15.10;81.00
69626;DHT22;56847;51.984;5.088;2024-02-16T09:59:31;15.00;81.00
69626;DHT22;56847;51.984;5.088;2024-02-16T10:02:03;15.00;81.10
69626;DHT22;56847;51.984;5.088;2024-02-16T10:04:30;15.00;81.10
69626;DHT22;56847;51.984;5.088;2024-02-16T10:07:03;14.90;81.30
69626;DHT22;56847;51.984;5.088;2024-02-16T10:09:38;14.80;81.50
69626;DHT22;56847;51.984;5.088;2024-02-16T10:12:07;14.80;81.70
69626;DHT22;56847;51.984;5.088;2024-02-16T10:14:35;14.80;81.80
69626;DHT22;56847;51.984;5.088;2024-02-16T10:17:04;14.70;81.90
69626;DHT22;56847;51.984;5.088;2024-02-16T10:19:31;14.70;82.10
69626;DHT22;56847;51.984;5.088;2024-02-16T10:22:12;14.60;82.20
69626;DHT22;56847;51.984;5.088;2024-02-16T10:24:40;14.60;82.40
69626;DHT22;56847;51.984;5.088;2024-02-16T10:27:17;14.60;82.50
69626;DHT22;56847;51.984;5.088;2024-02-16T10:29:47;14.50;82.50
69626;DHT22;56847;51.984;5.088;2024-02-16T10:32:18;14.50;82.60
69626;DHT22;56847;51.984;5.088;2024-02-16T10:34:47;14.50;82.80
69626;DHT22;56847;51.984;5.088;2024-02-16T10:37:17;14.40;83.10
69626;DHT22;56847;51.984;5.088;2024-02-16T10:39:45;14.40;83.60
69626;DHT22;56847;51.984;5.088;2024-02-16T10:42:14;14.40;83.50
69626;DHT22;56847;51.984;5.088;2024-02-16T10:44:43;14.40;83.60
69626;DHT22;56847;51.984;5.088;2024-02-16T10:47:11;14.30;83.70
69626;DHT22;56847;51.984;5.088;2024-02-16T10:49:38;14.20;84.00
69626;DHT22;56847;51.984;5.088;2024-02-16T10:52:07;14.20;84.20
69626;DHT22;56847;51.984;5.088;2024-02-16T10:54:35;14.20;84.40
69626;DHT22;56847;51.984;5.088;2024-02-16T10:57:08;14.20;84.50
69626;DHT22;56847;51.984;5.088;2024-02-16T10:59:44;14.20;84.60
69626;DHT22;56847;51.984;5.088;2024-02-16T11:02:12;14.20;84.70
69626;DHT22;56847;51.984;5.088;2024-02-16T11:04:40;14.20;84.60
69626;DHT22;56847;51.984;5.088;2024-02-16T11:07:17;14.20;84.80
69626;DHT22;56847;51.984;5.088;2024-02-16T11:09:46;14.20;84.90
69626;DHT22;56847;51.984;5.088;2024-02-16T11:12:14;14.20;84.80
69626;DHT22;56847;51.984;5.088;2024-02-16T11:14:48;14.20;84.90
69626;DHT22;56847;51.984;5.088;2024-02-16T11:17:21;14.20;84.90
69626;DHT22;56847;51.984;5.088;2024-02-16T11:19:49;14.20;84.90
69626;DHT22;56847;51.984;5.088;2024-02-16T11:22:18;14.20;85.00
69626;DHT22;56847;51.984;5.088;2024-02-16T11:24:48;14.20;85.10
69626;DHT22;56847;51.984;5.088;2024-02-16T11:27:17;14.20;85.20
69626;DHT22;56847;51.984;5.088;2024-02-16T11:29:49;14.30;85.00
69626;DHT22;56847;51.984;5.088;2024-02-16T11:32:18;14.30;85.10
69626;DHT22;56847;51.984;5.088;2024-02-16T11:34:46;14.30;85.00
69626;DHT22;56847;51.984;5.088;2024-02-16T11:37:16;14.40;85.00
69626;DHT22;56847;51.984;5.088;2024-02-16T11:39:43;14.40;84.90
69626;DHT22;56847;51.984;5.088;2024-02-16T11:42:13;14.40;84.80
69626;DHT22;56847;51.984;5.088;2024-02-16T11:44:53;14.40;84.70
69626;DHT22;56847;51.984;5.088;2024-02-16T11:47:23;14.30;84.80
69626;DHT22;56847;51.984;5.088;2024-02-16T11:50:14;14.30;84.80
69626;DHT22;56847;51.984;5.088;2024-02-16T11:52:43;14.40;85.00
69626;DHT22;56847;51.984;5.088;2024-02-16T11:55:13;14.40;85.00
69626;DHT22;56847;51.984;5.088;2024-02-16T11:57:42;14.40;85.00
69626;DHT22;56847;51.984;5.088;2024-02-16T12:00:11;14.40;85.10
69626;DHT22;56847;51.984;5.088;2024-02-16T12:02:43;14.40;85.10
69626;DHT22;56847;51.984;5.088;2024-02-16T12:05:14;14.40;84.80
69626;DHT22;56847;51.984;5.088;2024-02-16T12:07:42;14.40;84.60
69626;DHT22;56847;51.984;5.088;2024-02-16T12:10:10;14.30;84.80
69626;DHT22;56847;51.984;5.088;2024-02-16T12:12:37;14.30;84.80
69626;DHT22;56847;51.984;5.088;2024-02-16T12:15:05;14.20;84.90
69626;DHT22;56847;51.984;5.088;2024-02-16T12:17:33;14.20;85.10
69626;DHT22;56847;51.984;5.088;2024-02-16T12:20:00;14.20;85.50
69626;DHT22;56847;51.984;5.088;2024-02-16T12:22:29;14.20;85.80
69626;DHT22;56847;51.984;5.088;2024-02-16T12:24:57;14.20;86.00
69626;DHT22;56847;51.984;5.088;2024-02-16T12:27:28;14.30;86.20
69626;DHT22;56847;51.984;5.088;2024-02-16T12:29:56;14.40;85.70
69626;DHT22;56847;51.984;5.088;2024-02-16T12:32:25;14.40;85.40
69626;DHT22;56847;51.984;5.088;2024-02-16T12:34:53;14.40;85.30
69626;DHT22;56847;51.984;5.088;2024-02-16T12:37:21;14.40;85.40
69626;DHT22;56847;51.984;5.088;2024-02-16T12:39:53;14.50;85.10
69626;DHT22;56847;51.984;5.088;2024-02-16T12:42:25;14.40;85.10
69626;DHT22;56847;51.984;5.088;2024-02-16T12:44:56;14.50;85.60
69626;DHT22;56847;51.984;5.088;2024-02-16T12:47:25;14.60;86.00
69626;DHT22;56847;51.984;5.088;2024-02-16T12:49:56;14.70;85.60
69626;DHT22;56847;51.984;5.088;2024-02-16T12:52:35;14.80;85.40
69626;DHT22;56847;51.984;5.088;2024-02-16T12:55:17;14.80;85.20
69626;DHT22;56847;51.984;5.088;2024-02-16T12:57:45;14.90;85.10
69626;DHT22;56847;51.984;5.088;2024-02-16T13:00:13;15.00;84.90
69626;DHT22;56847;51.984;5.088;2024-02-16T13:02:42;15.00;84.70
69626;DHT22;56847;51.984;5.088;2024-02-16T13:05:10;15.10;84.60
69626;DHT22;56847;51.984;5.088;2024-02-16T13:07:48;15.20;84.50
69626;DHT22;56847;51.984;5.088;2024-02-16T13:10:18;15.20;84.50
69626;DHT22;56847;51.984;5.088;2024-02-16T13:12:49;15.30;84.20
69626;DHT22;56847;51.984;5.088;2024-02-16T13:15:17;15.30;83.70
69626;DHT22;56847;51.984;5.088;2024-02-16T13:17:55;15.20;83.60
69626;DHT22;56847;51.984;5.088;2024-02-16T13:20:24;15.20;83.80
69626;DHT22;56847;51.984;5.088;2024-02-16T13:22:53;15.20;83.90
69626;DHT22;56847;51.984;5.088;2024-02-16T13:25:23;15.20;83.50
69626;DHT22;56847;51.984;5.088;2024-02-16T13:27:51;15.30;83.30
69626;DHT22;56847;51.984;5.088;2024-02-16T13:30:19;15.30;83.20
69626;DHT22;56847;51.984;5.088;2024-02-16T13:32:46;15.30;83.20
69626;DHT22;56847;51.984;5.088;2024-02-16T13:35:14;15.20;83.00
69626;DHT22;56847;51.984;5.088;2024-02-16T13:37:48;15.20;83.00
69626;DHT22;56847;51.984;5.088;2024-02-16T13:40:19;15.20;83.10
69626;DHT22;56847;51.984;5.088;2024-02-16T13:42:48;15.10;82.90
69626;DHT22;56847;51.984;5.088;2024-02-16T13:45:23;15.10;83.00
69626;DHT22;56847;51.984;5.088;2024-02-16T13:47:59;15.10;83.30
69626;DHT22;56847;51.984;5.088;2024-02-16T13:50:27;15.10;83.60
69626;DHT22;56847;51.984;5.088;2024-02-16T13:52:56;15.10;83.00
69626;DHT22;56847;51.984;5.088;2024-02-16T13:55:24;15.10;82.90
69626;DHT22;56847;51.984;5.088;2024-02-16T13:57:56;15.10;82.40
69626;DHT22;56847;51.984;5.088;2024-02-16T14:00:28;15.10;82.70
69626;DHT22;56847;51.984;5.088;2024-02-16T14:02:56;15.00;82.70
69626;DHT22;56847;51.984;5.088;2024-02-16T14:05:25;15.00;83.00
69626;DHT22;56847;51.984;5.088;2024-02-16T14:07:54;15.00;83.10
69626;DHT22;56847;51.984;5.088;2024-02-16T14:10:28;15.00;83.00
69626;DHT22;56847;51.984;5.088;2024-02-16T14:13:01;15.00;83.40
69626;DHT22;56847;51.984;5.088;2024-02-16T14:15:33;15.10;83.40
69626;DHT22;56847;51.984;5.088;2024-02-16T14:18:01;15.20;83.60
69626;DHT22;56847;51.984;5.088;2024-02-16T14:20:40;15.20;83.40
69626;DHT22;56847;51.984;5.088;2024-02-16T14:23:12;15.20;83.10
69626;DHT22;56847;51.984;5.088;2024-02-16T14:25:40;15.20;83.20
69626;DHT22;56847;51.984;5.088;2024-02-16T14:28:14;15.30;83.10
69626;DHT22;56847;51.984;5.088;2024-02-16T14:30:47;15.30;83.40
69626;DHT22;56847;51.984;5.088;2024-02-16T14:33:21;15.30;83.00
69626;DHT22;56847;51.984;5.088;2024-02-16T14:36:02;15.40;83.10
69626;DHT22;56847;51.984;5.088;2024-02-16T14:38:41;15.40;83.10
69626;DHT22;56847;51.984;5.088;2024-02-16T14:41:13;15.40;83.00
69626;DHT22;56847;51.984;5.088;2024-02-16T14:43:45;15.40;83.00
69626;DHT22;56847;51.984;5.088;2024-02-16T14:46:15;15.50;82.80
69626;DHT22;56847;51.984;5.088;2024-02-16T14:48:54;15.50;82.40
69626;DHT22;56847;51.984;5.088;2024-02-16T14:51:22;15.50;82.30
69626;DHT22;56847;51.984;5.088;2024-02-16T14:53:51;15.50;82.40
69626;DHT22;56847;51.984;5.088;2024-02-16T14:56:26;15.50;82.30
69626;DHT22;56847;51.984;5.088;2024-02-16T14:58:58;15.60;82.20
69626;DHT22;56847;51.984;5.088;2024-02-16T15:01:31;15.60;82.00
69626;DHT22;56847;51.984;5.088;2024-02-16T15:04:00;15.60;82.00
69626;DHT22;56847;51.984;5.088;2024-02-16T15:06:32;15.70;81.50
69626;DHT22;56847;51.984;5.088;2024-02-16T15:09:06;15.60;80.60
69626;DHT22;56847;51.984;5.088;2024-02-16T15:11:35;15.60;81.20
69626;DHT22;56847;51.984;5.088;2024-02-16T15:14:06;15.60;81.60
69626;DHT22;56847;51.984;5.088;2024-02-16T15:16:37;15.70;81.60
69626;DHT22;56847;51.984;5.088;2024-02-16T15:19:09;15.70;81.30
69626;DHT22;56847;51.984;5.088;2024-02-16T15:21:37;15.70;81.50
69626;DHT22;56847;51.984;5.088;2024-02-16T15:24:05;15.70;81.30
69626;DHT22;56847;51.984;5.088;2024-02-16T15:26:32;15.70;81.60
69626;DHT22;56847;51.984;5.088;2024-02-16T15:28:59;15.70;81.70
69626;DHT22;56847;51.984;5.088;2024-02-16T15:31:26;15.70;81.80
69626;DHT22;56847;51.984;5.088;2024-02-16T15:33:53;15.70;81.70
69626;DHT22;56847;51.984;5.088;2024-02-16T15:36:20;15.70;81.60
69626;DHT22;56847;51.984;5.088;2024-02-16T15:38:48;15.70;81.60